»·PEaware :: QXE2241 KGEG-KSEA

QXE2241 :: KGEG-KSEA

FLIGHT INFORMATION

Flight Status: Arrived
Operator:
Horizon Air
More flights by this operator :: More flights under this callsign
Pilot: Trevel L P. (20826)
Aircraft: DEHAVILLAND DASH 8 400
(DH8D)
More flights by this aircraft type
Origin: KGEG Spokane Intl
United States
Destination: KSEA Seattle-Tacoma Intl
United States
More flights between these airports :: More routes between these airports
Route: GEG6 TEMPLE GLASR1
File this flight plan on PilotEdge
Remarks: RMK / SIMBRIEF
Altitude:
(Current/Filed)
24,000ft
Speed:
(Current/Filed)
322kts
Departed: 04-Feb-21 04:17 PM
Arrived: 04-Feb-21 05:17 PM
Distance/Time
Traveled:
193nm/1:00
Distance/Time
To Go:
Arrived

Flight Plot

Page will automatically refresh every two minutes.

Flight plan parsing failed; only flown route is shown


Map Options




Map Legend


Flown Route
Filed Route
Departure Airport
Arrival Airport
Navaid (VOR, NDB)
Fix

Horizontal Profiles

Position Reports

Time Latitude Longitude Heading Altitude Ground
Speed
04-Feb-21 15:43 47.623704 -117.538179 227 2392ft 0kts
04-Feb-21 15:44 47.623704 -117.538179 227 2392ft 0kts
04-Feb-21 15:45 47.623704 -117.538179 227 2392ft 0kts
04-Feb-21 15:46 47.623704 -117.538179 227 2392ft 0kts
04-Feb-21 15:47 47.623704 -117.538179 227 2392ft 0kts
04-Feb-21 15:48 47.623704 -117.538179 227 2392ft 0kts
04-Feb-21 15:49 47.623704 -117.538179 227 2392ft 0kts
04-Feb-21 15:50 47.623704 -117.538179 227 2392ft 0kts
04-Feb-21 15:51 47.623704 -117.538179 227 2392ft 0kts
04-Feb-21 15:52 47.623704 -117.538179 227 2392ft 0kts
04-Feb-21 15:53 47.623704 -117.538179 227 2392ft 0kts
04-Feb-21 15:54 47.623704 -117.538179 227 2392ft 0kts
04-Feb-21 15:55 47.623704 -117.538179 227 2392ft 0kts
04-Feb-21 15:56 47.623704 -117.538179 227 2392ft 0kts
04-Feb-21 15:57 47.623704 -117.538179 227 2392ft 0kts
04-Feb-21 15:58 47.623704 -117.538179 227 2392ft 0kts
04-Feb-21 15:59 47.623704 -117.538179 227 2392ft 0kts
04-Feb-21 16:00 47.623704 -117.538179 227 2392ft 0kts
04-Feb-21 16:01 47.623704 -117.538179 227 2392ft 0kts
04-Feb-21 16:02 47.623704 -117.538179 227 2392ft 0kts
04-Feb-21 16:03 47.623755 -117.537939 253 2392ft 1kts
04-Feb-21 16:04 47.623373 -117.537323 350 2392ft 2kts
04-Feb-21 16:05 47.622866 -117.537488 6 2392ft 0kts
04-Feb-21 16:06 47.622866 -117.537488 6 2392ft 0kts
04-Feb-21 16:07 47.622866 -117.537488 6 2392ft 0kts
04-Feb-21 16:08 47.622866 -117.537488 6 2392ft 0kts
04-Feb-21 16:09 47.622866 -117.537488 6 2392ft 0kts
04-Feb-21 16:10 47.623390 -117.534082 47 2392ft 0kts
04-Feb-21 16:11 47.626632 -117.529243 45 2392ft 3kts
04-Feb-21 16:12 47.630743 -117.523033 45 2392ft 0kts
04-Feb-21 16:14 47.632043 -117.519903 133 2392ft 0kts
04-Feb-21 16:15 47.631409 -117.518981 136 2392ft 2kts
04-Feb-21 16:16 47.623726 -117.529397 225 2393ft 15kts
04-Feb-21 16:17 47.591496 -117.573620 225 4519ft 136kts
04-Feb-21 16:18 47.556855 -117.623982 224 7293ft 110kts
04-Feb-21 16:19 47.519867 -117.676116 225 10084ft 135kts
04-Feb-21 16:20 47.478680 -117.728562 224 12378ft 198kts
04-Feb-21 16:21 47.474658 -117.801430 288 14465ft 179kts
04-Feb-21 16:22 47.486247 -117.876604 289 16348ft 130kts
04-Feb-21 16:23 47.497580 -117.950514 290 17939ft 154kts
04-Feb-21 16:24 47.509345 -118.026890 291 19424ft 155kts
04-Feb-21 16:25 47.521666 -118.106969 292 20819ft 156kts
04-Feb-21 16:26 47.534255 -118.188769 293 22093ft 122kts
04-Feb-21 16:27 47.547053 -118.271908 293 23254ft 109kts
04-Feb-21 16:28 47.560095 -118.356536 294 24174ft 113kts
04-Feb-21 16:29 47.574632 -118.447983 293 24279ft 153kts
04-Feb-21 16:30 47.590922 -118.551769 293 24284ft 183kts
04-Feb-21 16:31 47.607828 -118.661350 292 24287ft 203kts
04-Feb-21 16:32 47.625445 -118.777141 292 24289ft 215kts
04-Feb-21 16:32 47.640173 -118.875225 292 24287ft 222kts
04-Feb-21 16:33 47.657181 -118.989431 292 24289ft 276kts
04-Feb-21 16:34 47.674935 -119.109434 292 24291ft 259kts
04-Feb-21 16:36 47.695374 -119.248511 292 24301ft 279kts
04-Feb-21 16:36 47.710015 -119.348685 292 24298ft 262kts
04-Feb-21 16:37 47.727532 -119.468590 293 24297ft 251kts
04-Feb-21 16:38 47.738745 -119.591867 287 24296ft 244kts
04-Feb-21 16:39 47.748250 -119.716389 288 24297ft 290kts
04-Feb-21 16:40 47.757908 -119.839860 287 24296ft 278kts
04-Feb-21 16:41 47.767224 -119.961693 287 24296ft 262kts
04-Feb-21 16:42 47.776405 -120.082695 287 24296ft 289kts
04-Feb-21 16:43 47.785234 -120.200939 287 24299ft 290kts
04-Feb-21 16:44 47.794107 -120.321823 287 24306ft 284kts
04-Feb-21 16:45 47.802929 -120.443633 287 24308ft 272kts
04-Feb-21 16:46 47.811725 -120.566969 287 24308ft 258kts
04-Feb-21 16:47 47.820074 -120.685782 287 24304ft 285kts
04-Feb-21 16:48 47.828665 -120.808748 287 24307ft 283kts
04-Feb-21 16:49 47.837058 -120.932144 287 23527ft 273kts
04-Feb-21 16:50 47.845349 -121.053826 286 21528ft 276kts
04-Feb-21 16:51 47.852934 -121.168577 285 19810ft 269kts
04-Feb-21 16:52 47.860648 -121.284805 284 18487ft 266kts
04-Feb-21 16:53 47.867989 -121.402523 283 16803ft 281kts
04-Feb-21 16:54 47.875166 -121.517794 282 14999ft 276kts
04-Feb-21 16:55 47.882182 -121.632655 282 13178ft 265kts
04-Feb-21 16:56 47.857761 -121.738192 236 12101ft 243kts
04-Feb-21 16:57 47.800600 -121.821460 230 12061ft 254kts
04-Feb-21 16:58 47.739210 -121.903401 230 12061ft 282kts
04-Feb-21 16:59 47.675884 -121.988499 230 12062ft 259kts
04-Feb-21 17:00 47.650617 -122.080209 311 11934ft 225kts
04-Feb-21 17:01 47.697435 -122.131038 326 10483ft 222kts
04-Feb-21 17:02 47.748954 -122.173659 345 8272ft 238kts
04-Feb-21 17:03 47.806482 -122.192540 346 6415ft 237kts
04-Feb-21 17:04 47.852443 -122.228378 297 6072ft 194kts
04-Feb-21 17:05 47.860998 -122.297013 233 6110ft 164kts
04-Feb-21 17:06 47.808566 -122.309606 182 6072ft 157kts
04-Feb-21 17:07 47.758228 -122.308810 183 5948ft 154kts
04-Feb-21 17:08 47.709443 -122.309163 183 5142ft 184kts
04-Feb-21 17:09 47.667419 -122.309400 182 4351ft 144kts
04-Feb-21 17:10 47.626945 -122.309869 182 3585ft 151kts
04-Feb-21 17:11 47.589573 -122.310180 181 2871ft 145kts
04-Feb-21 17:12 47.553332 -122.310506 180 2189ft 142kts
04-Feb-21 17:13 47.515786 -122.310113 175 1407ft 140kts
04-Feb-21 17:14 47.481864 -122.310274 178 838ft 121kts
04-Feb-21 17:15 47.453009 -122.311084 179 441ft 82kts
04-Feb-21 17:16 47.446844 -122.309584 149 440ft 6kts
04-Feb-21 17:17 47.446766 -122.305815 52 441ft 0kts
04-Feb-21 17:18 47.446621 -122.304787 132 440ft 0kts
04-Feb-21 17:19 47.446621 -122.304787 132 440ft 0kts
04-Feb-21 17:20 47.446621 -122.304787 132 440ft 0kts
04-Feb-21 17:21 47.446621 -122.304787 132 440ft 0kts
04-Feb-21 17:22 47.446621 -122.304787 132 440ft 0kts
04-Feb-21 17:23 47.451997 -122.303417 90 446ft 0kts
04-Feb-21 17:24 47.451997 -122.303417 90 446ft 0kts
04-Feb-21 17:25 47.451997 -122.303417 90 446ft 0kts

Navigation Log

Ident Type
Flight plan parsing failed, navigation log unavailable